sensor_id;sensor_type;location;lat;lon;timestamp;P1;durP1;ratioP1;P2;durP2;ratioP2
948;SDS011;461;51.436;7.312;2023-05-27T05:12:25;14.17;;;7.00;;
948;SDS011;461;51.436;7.312;2023-05-27T05:14:51;14.47;;;6.30;;
948;SDS011;461;51.436;7.312;2023-05-27T05:17:17;22.17;;;7.60;;
948;SDS011;461;51.436;7.312;2023-05-27T05:19:44;14.60;;;7.03;;
948;SDS011;461;51.436;7.312;2023-05-27T05:22:10;16.93;;;7.30;;
948;SDS011;461;51.436;7.312;2023-05-27T05:24:38;16.23;;;8.77;;
948;SDS011;461;51.436;7.312;2023-05-27T05:27:05;19.70;;;8.10;;
948;SDS011;461;51.436;7.312;2023-05-27T05:29:32;18.27;;;8.43;;
948;SDS011;461;51.436;7.312;2023-05-27T05:31:58;19.13;;;6.90;;
948;SDS011;461;51.436;7.312;2023-05-27T05:34:23;21.80;;;6.97;;
948;SDS011;461;51.436;7.312;2023-05-27T05:36:49;15.23;;;7.20;;
948;SDS011;461;51.436;7.312;2023-05-27T05:39:15;14.40;;;6.83;;
948;SDS011;461;51.436;7.312;2023-05-27T05:41:41;14.87;;;7.50;;
948;SDS011;461;51.436;7.312;2023-05-27T05:44:07;10.70;;;7.20;;
948;SDS011;461;51.436;7.312;2023-05-27T05:46:37;15.17;;;5.87;;
948;SDS011;461;51.436;7.312;2023-05-27T05:49:03;13.30;;;7.07;;
948;SDS011;461;51.436;7.312;2023-05-27T05:51:29;15.90;;;7.60;;
948;SDS011;461;51.436;7.312;2023-05-27T05:53:56;10.97;;;7.47;;
948;SDS011;461;51.436;7.312;2023-05-27T05:56:22;16.07;;;6.40;;
948;SDS011;461;51.436;7.312;2023-05-27T05:58:48;14.00;;;6.70;;
948;SDS011;461;51.436;7.312;2023-05-27T06:01:15;18.60;;;7.20;;
948;SDS011;461;51.436;7.312;2023-05-27T06:03:41;23.40;;;7.80;;
948;SDS011;461;51.436;7.312;2023-05-27T06:06:06;20.67;;;7.70;;
948;SDS011;461;51.436;7.312;2023-05-27T06:08:33;13.90;;;6.93;;
948;SDS011;461;51.436;7.312;2023-05-27T06:10:59;14.07;;;7.17;;
948;SDS011;461;51.436;7.312;2023-05-27T06:13:24;16.70;;;7.90;;
948;SDS011;461;51.436;7.312;2023-05-27T06:15:50;20.07;;;7.50;;
948;SDS011;461;51.436;7.312;2023-05-27T06:18:16;16.10;;;7.03;;
948;SDS011;461;51.436;7.312;2023-05-27T06:20:42;16.93;;;8.03;;
948;SDS011;461;51.436;7.312;2023-05-27T06:23:07;15.37;;;7.33;;
948;SDS011;461;51.436;7.312;2023-05-27T06:25:33;10.80;;;6.33;;
948;SDS011;461;51.436;7.312;2023-05-27T06:27:59;19.80;;;7.40;;
948;SDS011;461;51.436;7.312;2023-05-27T06:30:25;11.90;;;7.60;;
948;SDS011;461;51.436;7.312;2023-05-27T06:32:51;16.50;;;6.77;;
948;SDS011;461;51.436;7.312;2023-05-27T06:35:17;16.40;;;7.03;;
948;SDS011;461;51.436;7.312;2023-05-27T06:37:43;17.23;;;6.90;;
948;SDS011;461;51.436;7.312;2023-05-27T06:40:09;12.70;;;6.90;;
948;SDS011;461;51.436;7.312;2023-05-27T06:42:36;18.40;;;7.10;;
948;SDS011;461;51.436;7.312;2023-05-27T06:45:02;13.90;;;6.97;;
948;SDS011;461;51.436;7.312;2023-05-27T06:47:28;18.20;;;6.60;;
948;SDS011;461;51.436;7.312;2023-05-27T06:49:54;18.13;;;7.10;;
948;SDS011;461;51.436;7.312;2023-05-27T06:52:20;21.13;;;7.20;;
948;SDS011;461;51.436;7.312;2023-05-27T06:54:46;13.83;;;7.30;;
948;SDS011;461;51.436;7.312;2023-05-27T06:57:12;14.90;;;6.53;;
948;SDS011;461;51.436;7.312;2023-05-27T06:59:38;14.60;;;7.30;;
948;SDS011;461;51.436;7.312;2023-05-27T07:02:05;16.73;;;6.93;;
948;SDS011;461;51.436;7.312;2023-05-27T07:04:31;15.20;;;5.73;;
948;SDS011;461;51.436;7.312;2023-05-27T07:06:57;12.03;;;6.87;;
948;SDS011;461;51.436;7.312;2023-05-27T07:09:23;15.57;;;6.70;;
948;SDS011;461;51.436;7.312;2023-05-27T07:11:49;20.23;;;7.87;;
948;SDS011;461;51.436;7.312;2023-05-27T07:14:15;15.43;;;7.93;;
948;SDS011;461;51.436;7.312;2023-05-27T07:16:40;19.33;;;6.77;;
948;SDS011;461;51.436;7.312;2023-05-27T07:19:06;19.23;;;6.90;;
948;SDS011;461;51.436;7.312;2023-05-27T07:21:32;16.03;;;6.17;;
948;SDS011;461;51.436;7.312;2023-05-27T07:23:59;16.40;;;6.77;;
948;SDS011;461;51.436;7.312;2023-05-27T07:26:28;17.97;;;7.43;;
948;SDS011;461;51.436;7.312;2023-05-27T07:28:56;14.67;;;8.07;;
948;SDS011;461;51.436;7.312;2023-05-27T07:31:22;14.57;;;6.90;;
948;SDS011;461;51.436;7.312;2023-05-27T07:33:48;16.07;;;8.17;;
948;SDS011;461;51.436;7.312;2023-05-27T07:36:14;19.47;;;6.60;;
948;SDS011;461;51.436;7.312;2023-05-27T07:38:40;13.37;;;7.10;;
948;SDS011;461;51.436;7.312;2023-05-27T07:41:06;16.53;;;8.00;;
948;SDS011;461;51.436;7.312;2023-05-27T07:43:32;21.63;;;7.77;;
948;SDS011;461;51.436;7.312;2023-05-27T07:45:58;10.47;;;6.70;;
948;SDS011;461;51.436;7.312;2023-05-27T07:48:25;13.90;;;7.13;;
948;SDS011;461;51.436;7.312;2023-05-27T07:50:51;17.67;;;6.80;;
948;SDS011;461;51.436;7.312;2023-05-27T07:53:17;13.60;;;6.80;;
948;SDS011;461;51.436;7.312;2023-05-27T07:55:43;12.93;;;6.80;;
948;SDS011;461;51.436;7.312;2023-05-27T07:58:09;19.00;;;7.60;;
948;SDS011;461;51.436;7.312;2023-05-27T08:00:35;18.03;;;6.60;;
948;SDS011;461;51.436;7.312;2023-05-27T08:03:01;12.77;;;5.93;;
948;SDS011;461;51.436;7.312;2023-05-27T08:05:27;15.00;;;7.37;;
948;SDS011;461;51.436;7.312;2023-05-27T08:07:53;14.97;;;6.70;;
948;SDS011;461;51.436;7.312;2023-05-27T08:10:20;13.10;;;6.67;;
948;SDS011;461;51.436;7.312;2023-05-27T08:12:46;14.03;;;6.10;;
948;SDS011;461;51.436;7.312;2023-05-27T08:15:12;12.33;;;7.37;;
948;SDS011;461;51.436;7.312;2023-05-27T08:17:38;15.07;;;7.07;;
948;SDS011;461;51.436;7.312;2023-05-27T08:20:05;16.03;;;7.43;;
948;SDS011;461;51.436;7.312;2023-05-27T08:22:31;17.30;;;6.43;;
948;SDS011;461;51.436;7.312;2023-05-27T08:24:57;13.70;;;6.30;;
948;SDS011;461;51.436;7.312;2023-05-27T08:27:41;14.73;;;6.27;;
948;SDS011;461;51.436;7.312;2023-05-27T08:30:08;14.50;;;6.00;;
948;SDS011;461;51.436;7.312;2023-05-27T08:32:34;13.03;;;6.30;;
948;SDS011;461;51.436;7.312;2023-05-27T08:35:00;18.33;;;6.70;;
948;SDS011;461;51.436;7.312;2023-05-27T08:37:26;14.13;;;6.47;;
948;SDS011;461;51.436;7.312;2023-05-27T08:39:53;13.87;;;6.20;;
948;SDS011;461;51.436;7.312;2023-05-27T08:42:20;11.07;;;6.17;;
948;SDS011;461;51.436;7.312;2023-05-27T08:44:46;16.13;;;6.70;;
948;SDS011;461;51.436;7.312;2023-05-27T08:47:12;14.67;;;6.80;;
948;SDS011;461;51.436;7.312;2023-05-27T08:49:39;16.53;;;6.53;;
948;SDS011;461;51.436;7.312;2023-05-27T08:52:06;11.43;;;5.87;;
948;SDS011;461;51.436;7.312;2023-05-27T08:54:32;20.63;;;6.70;;
948;SDS011;461;51.436;7.312;2023-05-27T08:56:59;11.70;;;7.30;;
948;SDS011;461;51.436;7.312;2023-05-27T08:59:25;12.20;;;6.30;;
948;SDS011;461;51.436;7.312;2023-05-27T09:01:51;14.60;;;6.70;;
948;SDS011;461;51.436;7.312;2023-05-27T09:04:18;12.47;;;6.93;;
948;SDS011;461;51.436;7.312;2023-05-27T09:06:44;11.37;;;6.07;;
948;SDS011;461;51.436;7.312;2023-05-27T09:09:10;12.82;;;6.65;;
948;SDS011;461;51.436;7.312;2023-05-27T09:11:38;14.00;;;7.10;;
948;SDS011;461;51.436;7.312;2023-05-27T09:14:05;11.70;;;5.77;;
948;SDS011;461;51.436;7.312;2023-05-27T09:16:31;11.07;;;5.73;;
948;SDS011;461;51.436;7.312;2023-05-27T09:18:57;12.67;;;4.90;;
948;SDS011;461;51.436;7.312;2023-05-27T09:21:26;10.63;;;5.60;;
948;SDS011;461;51.436;7.312;2023-05-27T09:23:56;11.97;;;6.17;;
948;SDS011;461;51.436;7.312;2023-05-27T09:26:23;9.60;;;5.43;;
948;SDS011;461;51.436;7.312;2023-05-27T09:28:50;12.93;;;5.67;;
948;SDS011;461;51.436;7.312;2023-05-27T09:31:16;20.20;;;8.23;;
948;SDS011;461;51.436;7.312;2023-05-27T09:33:43;13.53;;;5.93;;
948;SDS011;461;51.436;7.312;2023-05-27T09:36:10;19.13;;;7.10;;
948;SDS011;461;51.436;7.312;2023-05-27T09:38:37;12.47;;;6.63;;
948;SDS011;461;51.436;7.312;2023-05-27T09:41:24;9.47;;;4.70;;
948;SDS011;461;51.436;7.312;2023-05-27T09:43:54;10.57;;;5.20;;
948;SDS011;461;51.436;7.312;2023-05-27T09:46:21;15.87;;;7.27;;
948;SDS011;461;51.436;7.312;2023-05-27T09:48:48;11.27;;;4.97;;
948;SDS011;461;51.436;7.312;2023-05-27T09:51:14;11.60;;;5.40;;
948;SDS011;461;51.436;7.312;2023-05-27T09:53:41;11.10;;;5.20;;
948;SDS011;461;51.436;7.312;2023-05-27T09:56:08;11.67;;;5.20;;
948;SDS011;461;51.436;7.312;2023-05-27T09:58:34;13.27;;;4.60;;
948;SDS011;461;51.436;7.312;2023-05-27T10:01:00;10.30;;;5.27;;
948;SDS011;461;51.436;7.312;2023-05-27T10:03:29;12.13;;;5.50;;
948;SDS011;461;51.436;7.312;2023-05-27T10:05:55;10.47;;;5.00;;
948;SDS011;461;51.436;7.312;2023-05-27T10:08:21;11.30;;;5.40;;
948;SDS011;461;51.436;7.312;2023-05-27T10:10:47;14.67;;;6.67;;
948;SDS011;461;51.436;7.312;2023-05-27T10:13:14;8.07;;;4.53;;
948;SDS011;461;51.436;7.312;2023-05-27T10:15:45;10.77;;;5.00;;
948;SDS011;461;51.436;7.312;2023-05-27T10:18:21;13.00;;;5.10;;
948;SDS011;461;51.436;7.312;2023-05-27T10:20:49;11.47;;;5.10;;
948;SDS011;461;51.436;7.312;2023-05-27T10:23:16;13.37;;;5.37;;
948;SDS011;461;51.436;7.312;2023-05-27T10:25:50;9.60;;;5.23;;
948;SDS011;461;51.436;7.312;2023-05-27T10:28:23;17.77;;;6.93;;
948;SDS011;461;51.436;7.312;2023-05-27T10:30:50;16.10;;;5.00;;
948;SDS011;461;51.436;7.312;2023-05-27T10:33:17;12.20;;;5.50;;
948;SDS011;461;51.436;7.312;2023-05-27T10:35:51;11.03;;;5.30;;
948;SDS011;461;51.436;7.312;2023-05-27T10:38:18;13.50;;;5.50;;
948;SDS011;461;51.436;7.312;2023-05-27T10:40:45;11.73;;;5.07;;
948;SDS011;461;51.436;7.312;2023-05-27T10:43:18;15.40;;;5.27;;
948;SDS011;461;51.436;7.312;2023-05-27T10:45:45;13.93;;;6.37;;
948;SDS011;461;51.436;7.312;2023-05-27T10:48:17;16.53;;;6.50;;
948;SDS011;461;51.436;7.312;2023-05-27T10:50:49;8.00;;;4.90;;
948;SDS011;461;51.436;7.312;2023-05-27T10:53:16;14.87;;;5.70;;
948;SDS011;461;51.436;7.312;2023-05-27T10:55:43;11.70;;;5.80;;
948;SDS011;461;51.436;7.312;2023-05-27T10:58:11;17.73;;;5.60;;
948;SDS011;461;51.436;7.312;2023-05-27T11:00:37;11.83;;;5.60;;
948;SDS011;461;51.436;7.312;2023-05-27T11:03:03;16.10;;;6.30;;
948;SDS011;461;51.436;7.312;2023-05-27T11:05:29;12.70;;;5.60;;
948;SDS011;461;51.436;7.312;2023-05-27T11:07:58;18.50;;;6.30;;
948;SDS011;461;51.436;7.312;2023-05-27T11:10:25;16.10;;;5.67;;
948;SDS011;461;51.436;7.312;2023-05-27T11:12:51;9.67;;;5.03;;
948;SDS011;461;51.436;7.312;2023-05-27T11:15:18;12.40;;;6.47;;
948;SDS011;461;51.436;7.312;2023-05-27T13:09:24;11.67;;;5.03;;
948;SDS011;461;51.436;7.312;2023-05-27T13:11:50;8.57;;;5.10;;
948;SDS011;461;51.436;7.312;2023-05-27T13:17:23;9.33;;;5.53;;
948;SDS011;461;51.436;7.312;2023-05-27T13:20:03;8.50;;;4.60;;
948;SDS011;461;51.436;7.312;2023-05-27T13:22:34;11.50;;;5.30;;
948;SDS011;461;51.436;7.312;2023-05-27T13:28:16;6.83;;;4.80;;
948;SDS011;461;51.436;7.312;2023-05-27T13:30:45;11.13;;;5.93;;
948;SDS011;461;51.436;7.312;2023-05-27T13:33:14;13.30;;;5.60;;
948;SDS011;461;51.436;7.312;2023-05-27T13:35:40;10.50;;;5.30;;
948;SDS011;461;51.436;7.312;2023-05-27T13:38:07;9.40;;;4.73;;
948;SDS011;461;51.436;7.312;2023-05-27T13:40:37;12.77;;;5.47;;
948;SDS011;461;51.436;7.312;2023-05-27T13:43:07;12.73;;;5.83;;
948;SDS011;461;51.436;7.312;2023-05-27T13:45:42;12.67;;;4.93;;
948;SDS011;461;51.436;7.312;2023-05-27T13:48:25;11.77;;;5.40;;
948;SDS011;461;51.436;7.312;2023-05-27T13:51:04;12.60;;;5.50;;
948;SDS011;461;51.436;7.312;2023-05-27T13:53:36;10.37;;;4.73;;
948;SDS011;461;51.436;7.312;2023-05-27T13:56:02;12.80;;;5.63;;
948;SDS011;461;51.436;7.312;2023-05-27T13:58:31;7.40;;;4.50;;
948;SDS011;461;51.436;7.312;2023-05-27T14:04:18;11.43;;;6.00;;
948;SDS011;461;51.436;7.312;2023-05-27T14:07:15;7.27;;;5.00;;
948;SDS011;461;51.436;7.312;2023-05-27T14:18:55;9.23;;;5.30;;
948;SDS011;461;51.436;7.312;2023-05-27T14:21:21;9.77;;;5.60;;
948;SDS011;461;51.436;7.312;2023-05-27T14:24:16;9.77;;;5.17;;
948;SDS011;461;51.436;7.312;2023-05-27T14:26:47;15.47;;;6.93;;
948;SDS011;461;51.436;7.312;2023-05-27T14:29:46;11.80;;;5.30;;
948;SDS011;461;51.436;7.312;2023-05-27T14:32:16;9.70;;;5.60;;
948;SDS011;461;51.436;7.312;2023-05-27T14:34:43;9.57;;;5.23;;
948;SDS011;461;51.436;7.312;2023-05-27T14:37:12;7.57;;;5.17;;
948;SDS011;461;51.436;7.312;2023-05-27T14:42:15;9.90;;;4.77;;
948;SDS011;461;51.436;7.312;2023-05-27T14:47:31;9.67;;;5.97;;
948;SDS011;461;51.436;7.312;2023-05-27T14:49:57;13.33;;;6.37;;
948;SDS011;461;51.436;7.312;2023-05-27T14:52:23;11.37;;;4.90;;
948;SDS011;461;51.436;7.312;2023-05-27T14:54:50;11.33;;;5.23;;
948;SDS011;461;51.436;7.312;2023-05-27T14:57:16;8.87;;;5.83;;
948;SDS011;461;51.436;7.312;2023-05-27T14:59:42;12.27;;;5.73;;
948;SDS011;461;51.436;7.312;2023-05-27T15:02:08;10.00;;;5.00;;
948;SDS011;461;51.436;7.312;2023-05-27T15:04:35;11.47;;;6.53;;
948;SDS011;461;51.436;7.312;2023-05-27T15:07:04;10.80;;;7.00;;
948;SDS011;461;51.436;7.312;2023-05-27T15:09:31;6.23;;;5.50;;
948;SDS011;461;51.436;7.312;2023-05-27T15:11:57;12.03;;;7.00;;
948;SDS011;461;51.436;7.312;2023-05-27T15:14:34;7.57;;;4.63;;
948;SDS011;461;51.436;7.312;2023-05-27T15:17:01;12.43;;;5.70;;
948;SDS011;461;51.436;7.312;2023-05-27T15:19:30;16.60;;;6.53;;
948;SDS011;461;51.436;7.312;2023-05-27T15:24:53;16.33;;;5.43;;
948;SDS011;461;51.436;7.312;2023-05-27T15:27:19;11.07;;;5.50;;
948;SDS011;461;51.436;7.312;2023-05-27T15:29:45;8.00;;;4.67;;
948;SDS011;461;51.436;7.312;2023-05-27T15:32:14;9.47;;;5.30;;
948;SDS011;461;51.436;7.312;2023-05-27T15:34:46;8.70;;;4.80;;
948;SDS011;461;51.436;7.312;2023-05-27T15:37:33;6.67;;;4.60;;
948;SDS011;461;51.436;7.312;2023-05-27T15:43:12;10.40;;;5.03;;
948;SDS011;461;51.436;7.312;2023-05-27T15:45:42;9.77;;;6.00;;
948;SDS011;461;51.436;7.312;2023-05-27T15:48:15;8.50;;;5.13;;
948;SDS011;461;51.436;7.312;2023-05-27T15:50:41;11.50;;;5.10;;
948;SDS011;461;51.436;7.312;2023-05-27T15:53:07;6.00;;;5.07;;
948;SDS011;461;51.436;7.312;2023-05-27T15:55:34;10.47;;;4.43;;
948;SDS011;461;51.436;7.312;2023-05-27T15:58:00;10.83;;;5.40;;
948;SDS011;461;51.436;7.312;2023-05-27T16:00:27;8.83;;;5.10;;
948;SDS011;461;51.436;7.312;2023-05-27T16:02:53;11.10;;;5.00;;
948;SDS011;461;51.436;7.312;2023-05-27T16:05:19;10.83;;;5.67;;
948;SDS011;461;51.436;7.312;2023-05-27T16:07:52;10.60;;;5.43;;
948;SDS011;461;51.436;7.312;2023-05-27T16:10:20;8.50;;;5.10;;
948;SDS011;461;51.436;7.312;2023-05-27T16:12:46;11.60;;;5.13;;
948;SDS011;461;51.436;7.312;2023-05-27T16:15:13;13.00;;;4.97;;
948;SDS011;461;51.436;7.312;2023-05-27T16:17:39;10.87;;;4.93;;
948;SDS011;461;51.436;7.312;2023-05-27T16:20:05;9.13;;;4.73;;
948;SDS011;461;51.436;7.312;2023-05-27T16:22:35;8.10;;;5.20;;
948;SDS011;461;51.436;7.312;2023-05-27T16:25:04;8.80;;;4.80;;
948;SDS011;461;51.436;7.312;2023-05-27T16:27:30;5.90;;;3.80;;
948;SDS011;461;51.436;7.312;2023-05-27T16:29:56;8.57;;;5.10;;
948;SDS011;461;51.436;7.312;2023-05-27T16:32:22;8.13;;;5.57;;
948;SDS011;461;51.436;7.312;2023-05-27T16:34:50;8.20;;;4.50;;
948;SDS011;461;51.436;7.312;2023-05-27T16:37:16;7.37;;;4.50;;
948;SDS011;461;51.436;7.312;2023-05-27T16:39:42;7.47;;;4.40;;
948;SDS011;461;51.436;7.312;2023-05-27T16:42:08;9.30;;;4.73;;
948;SDS011;461;51.436;7.312;2023-05-27T16:44:34;8.80;;;4.87;;
948;SDS011;461;51.436;7.312;2023-05-27T16:47:00;9.97;;;4.93;;
948;SDS011;461;51.436;7.312;2023-05-27T16:49:28;11.93;;;4.73;;
948;SDS011;461;51.436;7.312;2023-05-27T16:51:55;7.60;;;5.30;;
948;SDS011;461;51.436;7.312;2023-05-27T16:54:21;8.13;;;4.37;;
948;SDS011;461;51.436;7.312;2023-05-27T16:56:50;7.70;;;4.60;;
948;SDS011;461;51.436;7.312;2023-05-27T16:59:16;6.93;;;4.33;;
948;SDS011;461;51.436;7.312;2023-05-27T17:01:42;6.47;;;4.87;;
948;SDS011;461;51.436;7.312;2023-05-27T17:04:08;7.33;;;4.60;;
948;SDS011;461;51.436;7.312;2023-05-27T17:06:34;9.40;;;4.80;;
948;SDS011;461;51.436;7.312;2023-05-27T17:09:01;7.73;;;4.20;;
948;SDS011;461;51.436;7.312;2023-05-27T17:11:27;7.40;;;5.47;;
948;SDS011;461;51.436;7.312;2023-05-27T17:13:53;6.07;;;4.13;;
948;SDS011;461;51.436;7.312;2023-05-27T17:16:19;13.10;;;4.90;;
948;SDS011;461;51.436;7.312;2023-05-27T17:18:45;9.93;;;4.67;;
948;SDS011;461;51.436;7.312;2023-05-27T17:21:11;7.23;;;4.50;;
948;SDS011;461;51.436;7.312;2023-05-27T17:23:38;8.57;;;5.00;;
948;SDS011;461;51.436;7.312;2023-05-27T17:26:04;9.33;;;4.20;;
948;SDS011;461;51.436;7.312;2023-05-27T17:28:30;6.87;;;3.93;;
948;SDS011;461;51.436;7.312;2023-05-27T17:30:56;7.40;;;4.57;;
948;SDS011;461;51.436;7.312;2023-05-27T17:33:22;7.20;;;3.63;;
948;SDS011;461;51.436;7.312;2023-05-27T17:35:48;6.73;;;4.17;;
948;SDS011;461;51.436;7.312;2023-05-27T17:38:14;7.63;;;4.67;;
948;SDS011;461;51.436;7.312;2023-05-27T17:40:41;9.10;;;5.20;;
948;SDS011;461;51.436;7.312;2023-05-27T17:43:07;8.30;;;4.00;;
948;SDS011;461;51.436;7.312;2023-05-27T17:45:33;8.60;;;4.40;;
948;SDS011;461;51.436;7.312;2023-05-27T17:48:00;5.07;;;3.47;;
948;SDS011;461;51.436;7.312;2023-05-27T17:50:26;7.50;;;4.73;;
948;SDS011;461;51.436;7.312;2023-05-27T17:52:52;10.30;;;6.07;;
948;SDS011;461;51.436;7.312;2023-05-27T17:55:18;8.10;;;4.30;;
948;SDS011;461;51.436;7.312;2023-05-27T17:57:44;6.37;;;4.00;;
948;SDS011;461;51.436;7.312;2023-05-27T18:00:12;6.33;;;4.20;;
948;SDS011;461;51.436;7.312;2023-05-27T18:02:38;6.97;;;3.80;;
948;SDS011;461;51.436;7.312;2023-05-27T18:05:04;7.30;;;5.23;;
948;SDS011;461;51.436;7.312;2023-05-27T18:07:30;6.77;;;4.77;;
948;SDS011;461;51.436;7.312;2023-05-27T18:09:56;8.00;;;4.17;;
948;SDS011;461;51.436;7.312;2023-05-27T18:12:23;6.40;;;3.90;;
948;SDS011;461;51.436;7.312;2023-05-27T18:14:49;6.80;;;3.80;;
948;SDS011;461;51.436;7.312;2023-05-27T18:17:15;4.90;;;3.63;;
948;SDS011;461;51.436;7.312;2023-05-27T18:19:41;8.23;;;3.90;;
948;SDS011;461;51.436;7.312;2023-05-27T18:22:07;5.70;;;3.60;;
948;SDS011;461;51.436;7.312;2023-05-27T18:24:33;5.23;;;3.80;;
948;SDS011;461;51.436;7.312;2023-05-27T18:26:59;6.53;;;4.20;;
948;SDS011;461;51.436;7.312;2023-05-27T18:29:25;4.53;;;3.67;;
948;SDS011;461;51.436;7.312;2023-05-27T18:31:52;7.30;;;4.07;;
948;SDS011;461;51.436;7.312;2023-05-27T18:34:18;5.30;;;3.90;;
948;SDS011;461;51.436;7.312;2023-05-27T18:36:45;7.37;;;4.03;;
948;SDS011;461;51.436;7.312;2023-05-27T18:39:11;7.20;;;4.00;;
948;SDS011;461;51.436;7.312;2023-05-27T18:41:37;4.90;;;3.73;;
948;SDS011;461;51.436;7.312;2023-05-27T18:44:03;6.43;;;3.30;;
948;SDS011;461;51.436;7.312;2023-05-27T18:46:29;7.20;;;4.00;;
948;SDS011;461;51.436;7.312;2023-05-27T18:48:55;7.53;;;4.30;;
948;SDS011;461;51.436;7.312;2023-05-27T18:51:21;7.30;;;3.93;;
948;SDS011;461;51.436;7.312;2023-05-27T18:53:48;16.20;;;3.60;;
948;SDS011;461;51.436;7.312;2023-05-27T18:56:14;6.40;;;3.80;;
948;SDS011;461;51.436;7.312;2023-05-27T18:58:40;9.20;;;5.43;;
948;SDS011;461;51.436;7.312;2023-05-27T19:01:06;7.70;;;4.20;;
948;SDS011;461;51.436;7.312;2023-05-27T19:03:32;8.27;;;4.07;;
948;SDS011;461;51.436;7.312;2023-05-27T19:05:58;7.90;;;3.53;;
948;SDS011;461;51.436;7.312;2023-05-27T19:08:24;8.03;;;3.90;;
948;SDS011;461;51.436;7.312;2023-05-27T19:10:50;6.60;;;4.10;;
948;SDS011;461;51.436;7.312;2023-05-27T19:13:17;6.67;;;3.80;;
948;SDS011;461;51.436;7.312;2023-05-27T19:15:43;7.33;;;4.20;;
948;SDS011;461;51.436;7.312;2023-05-27T19:18:09;5.53;;;4.50;;
948;SDS011;461;51.436;7.312;2023-05-27T19:20:35;6.93;;;3.80;;
948;SDS011;461;51.436;7.312;2023-05-27T19:23:01;9.27;;;4.20;;
948;SDS011;461;51.436;7.312;2023-05-27T19:25:28;6.50;;;4.00;;
948;SDS011;461;51.436;7.312;2023-05-27T19:27:54;4.90;;;3.60;;
948;SDS011;461;51.436;7.312;2023-05-27T19:30:20;6.93;;;3.87;;
948;SDS011;461;51.436;7.312;2023-05-27T19:32:46;8.90;;;4.37;;
948;SDS011;461;51.436;7.312;2023-05-27T19:35:13;13.43;;;4.30;;
948;SDS011;461;51.436;7.312;2023-05-27T19:37:40;10.17;;;4.53;;
948;SDS011;461;51.436;7.312;2023-05-27T19:40:06;7.30;;;4.33;;
948;SDS011;461;51.436;7.312;2023-05-27T19:42:32;8.23;;;4.90;;
948;SDS011;461;51.436;7.312;2023-05-27T19:45:04;7.47;;;4.40;;
948;SDS011;461;51.436;7.312;2023-05-27T19:47:40;8.30;;;4.97;;
948;SDS011;461;51.436;7.312;2023-05-27T19:50:07;7.47;;;4.07;;
948;SDS011;461;51.436;7.312;2023-05-27T19:52:33;8.53;;;3.83;;
948;SDS011;461;51.436;7.312;2023-05-27T19:54:59;7.37;;;4.93;;
948;SDS011;461;51.436;7.312;2023-05-27T19:57:26;7.90;;;4.90;;
948;SDS011;461;51.436;7.312;2023-05-27T19:59:52;6.07;;;4.30;;
948;SDS011;461;51.436;7.312;2023-05-27T20:02:18;7.93;;;4.80;;
948;SDS011;461;51.436;7.312;2023-05-27T20:04:44;6.70;;;5.03;;
948;SDS011;461;51.436;7.312;2023-05-27T20:07:10;5.33;;;4.47;;
948;SDS011;461;51.436;7.312;2023-05-27T20:09:36;7.20;;;5.40;;
948;SDS011;461;51.436;7.312;2023-05-27T20:12:03;10.30;;;5.57;;
948;SDS011;461;51.436;7.312;2023-05-27T20:14:29;8.30;;;5.67;;
948;SDS011;461;51.436;7.312;2023-05-27T20:16:55;10.67;;;6.30;;
948;SDS011;461;51.436;7.312;2023-05-27T20:19:22;6.67;;;5.27;;
948;SDS011;461;51.436;7.312;2023-05-27T20:21:48;10.90;;;6.00;;
948;SDS011;461;51.436;7.312;2023-05-27T20:24:14;7.10;;;5.30;;
948;SDS011;461;51.436;7.312;2023-05-27T20:26:40;12.10;;;7.53;;
948;SDS011;461;51.436;7.312;2023-05-27T20:29:06;8.70;;;6.10;;
948;SDS011;461;51.436;7.312;2023-05-27T20:31:32;9.90;;;6.10;;
948;SDS011;461;51.436;7.312;2023-05-27T20:33:58;6.00;;;4.20;;
948;SDS011;461;51.436;7.312;2023-05-27T20:36:25;7.70;;;4.83;;
948;SDS011;461;51.436;7.312;2023-05-27T20:38:51;11.57;;;6.00;;
948;SDS011;461;51.436;7.312;2023-05-27T20:41:22;11.17;;;5.80;;
948;SDS011;461;51.436;7.312;2023-05-27T20:43:48;7.53;;;5.40;;
948;SDS011;461;51.436;7.312;2023-05-27T20:46:14;9.87;;;6.20;;
948;SDS011;461;51.436;7.312;2023-05-27T20:48:40;10.40;;;6.40;;
948;SDS011;461;51.436;7.312;2023-05-27T20:51:07;11.23;;;7.77;;
948;SDS011;461;51.436;7.312;2023-05-27T20:53:33;16.00;;;8.93;;
948;SDS011;461;51.436;7.312;2023-05-27T20:55:59;11.90;;;9.00;;
948;SDS011;461;51.436;7.312;2023-05-27T20:58:25;13.87;;;9.53;;
948;SDS011;461;51.436;7.312;2023-05-27T21:00:51;16.30;;;10.83;;
948;SDS011;461;51.436;7.312;2023-05-27T21:03:19;18.57;;;10.50;;
948;SDS011;461;51.436;7.312;2023-05-27T21:05:45;13.93;;;9.90;;
948;SDS011;461;51.436;7.312;2023-05-27T21:08:11;13.27;;;9.90;;
948;SDS011;461;51.436;7.312;2023-05-27T21:10:37;10.30;;;7.07;;
948;SDS011;461;51.436;7.312;2023-05-27T21:13:03;9.63;;;5.63;;
948;SDS011;461;51.436;7.312;2023-05-27T21:15:30;17.93;;;5.83;;
948;SDS011;461;51.436;7.312;2023-05-27T21:17:56;8.60;;;5.13;;
948;SDS011;461;51.436;7.312;2023-05-27T21:20:22;12.33;;;5.70;;
948;SDS011;461;51.436;7.312;2023-05-27T21:22:48;14.10;;;6.20;;
948;SDS011;461;51.436;7.312;2023-05-27T21:25:14;11.73;;;5.87;;
948;SDS011;461;51.436;7.312;2023-05-27T21:27:40;9.73;;;5.77;;
948;SDS011;461;51.436;7.312;2023-05-27T21:30:07;8.43;;;6.43;;
948;SDS011;461;51.436;7.312;2023-05-27T21:32:33;10.50;;;6.00;;
948;SDS011;461;51.436;7.312;2023-05-27T21:34:59;8.83;;;5.40;;
948;SDS011;461;51.436;7.312;2023-05-27T21:37:25;10.00;;;5.50;;
948;SDS011;461;51.436;7.312;2023-05-27T21:39:51;8.40;;;5.00;;
948;SDS011;461;51.436;7.312;2023-05-27T21:42:17;11.23;;;6.10;;
948;SDS011;461;51.436;7.312;2023-05-27T21:44:45;10.60;;;5.93;;
948;SDS011;461;51.436;7.312;2023-05-27T21:47:11;7.63;;;4.93;;
948;SDS011;461;51.436;7.312;2023-05-27T21:49:37;7.77;;;5.27;;
948;SDS011;461;51.436;7.312;2023-05-27T21:52:03;9.73;;;5.30;;
948;SDS011;461;51.436;7.312;2023-05-27T21:54:28;9.90;;;5.00;;
948;SDS011;461;51.436;7.312;2023-05-27T21:56:54;13.83;;;5.67;;
948;SDS011;461;51.436;7.312;2023-05-27T21:59:20;6.97;;;5.20;;
948;SDS011;461;51.436;7.312;2023-05-27T22:01:46;7.63;;;5.40;;
948;SDS011;461;51.436;7.312;2023-05-27T22:04:11;14.37;;;6.77;;
948;SDS011;461;51.436;7.312;2023-05-27T22:06:38;14.63;;;5.77;;
948;SDS011;461;51.436;7.312;2023-05-27T22:09:06;8.60;;;6.13;;
948;SDS011;461;51.436;7.312;2023-05-27T22:11:33;12.20;;;7.00;;
948;SDS011;461;51.436;7.312;2023-05-27T22:13:59;8.43;;;5.63;;
948;SDS011;461;51.436;7.312;2023-05-27T22:16:25;11.87;;;6.63;;
948;SDS011;461;51.436;7.312;2023-05-27T22:18:51;13.80;;;8.03;;
948;SDS011;461;51.436;7.312;2023-05-27T22:21:16;9.83;;;6.90;;
948;SDS011;461;51.436;7.312;2023-05-27T22:23:43;9.33;;;6.50;;
948;SDS011;461;51.436;7.312;2023-05-27T22:26:09;11.60;;;6.63;;
948;SDS011;461;51.436;7.312;2023-05-27T22:28:35;9.47;;;7.17;;
948;SDS011;461;51.436;7.312;2023-05-27T22:31:01;9.03;;;7.00;;
948;SDS011;461;51.436;7.312;2023-05-27T22:33:28;16.97;;;8.60;;
948;SDS011;461;51.436;7.312;2023-05-27T22:35:57;15.70;;;8.23;;
948;SDS011;461;51.436;7.312;2023-05-27T22:38:23;9.13;;;7.00;;
948;SDS011;461;51.436;7.312;2023-05-27T22:40:49;18.23;;;8.27;;
948;SDS011;461;51.436;7.312;2023-05-27T22:43:15;12.77;;;8.30;;
948;SDS011;461;51.436;7.312;2023-05-27T22:45:41;11.47;;;6.60;;
948;SDS011;461;51.436;7.312;2023-05-27T22:48:07;12.17;;;7.40;;
948;SDS011;461;51.436;7.312;2023-05-27T22:50:34;9.53;;;6.93;;
948;SDS011;461;51.436;7.312;2023-05-27T22:53:00;14.10;;;8.60;;
948;SDS011;461;51.436;7.312;2023-05-27T22:55:26;11.67;;;8.33;;
948;SDS011;461;51.436;7.312;2023-05-27T22:57:52;11.60;;;7.23;;
948;SDS011;461;51.436;7.312;2023-05-27T23:00:18;11.43;;;6.60;;
948;SDS011;461;51.436;7.312;2023-05-27T23:02:44;8.83;;;6.57;;
948;SDS011;461;51.436;7.312;2023-05-27T23:05:10;12.63;;;7.20;;
948;SDS011;461;51.436;7.312;2023-05-27T23:07:37;12.83;;;6.50;;
948;SDS011;461;51.436;7.312;2023-05-27T23:10:03;13.53;;;6.67;;